sensor_id;sensor_type;location;lat;lon;timestamp;pressure;altitude;pressure_sealevel;temperature;humidity
51359;BME280;37448;51.588;7.248;2022-11-15T00:00:25;100215.91;;;7.52;100.00
51359;BME280;37448;51.588;7.248;2022-11-15T00:02:55;100210.88;;;7.54;100.00
51359;BME280;37448;51.588;7.248;2022-11-15T00:05:26;100202.41;;;7.59;100.00
51359;BME280;37448;51.588;7.248;2022-11-15T00:07:56;100200.56;;;7.63;100.00
51359;BME280;37448;51.588;7.248;2022-11-15T00:10:27;100204.84;;;7.64;100.00
51359;BME280;37448;51.588;7.248;2022-11-15T00:12:57;100208.47;;;7.68;100.00
51359;BME280;37448;51.588;7.248;2022-11-15T00:15:27;100199.50;;;7.68;100.00
51359;BME280;37448;51.588;7.248;2022-11-15T00:17:58;100209.78;;;7.74;100.00
51359;BME280;37448;51.588;7.248;2022-11-15T00:20:28;100204.78;;;7.76;100.00
51359;BME280;37448;51.588;7.248;2022-11-15T00:22:59;100206.78;;;7.79;100.00
51359;BME280;37448;51.588;7.248;2022-11-15T00:25:29;100209.25;;;7.85;100.00
51359;BME280;37448;51.588;7.248;2022-11-15T00:28:00;100204.56;;;7.85;100.00
51359;BME280;37448;51.588;7.248;2022-11-15T00:30:31;100197.25;;;7.89;100.00
51359;BME280;37448;51.588;7.248;2022-11-15T00:33:03;100202.78;;;7.93;100.00
51359;BME280;37448;51.588;7.248;2022-11-15T00:35:34;100197.00;;;7.98;100.00
51359;BME280;37448;51.588;7.248;2022-11-15T00:38:05;100202.50;;;7.98;100.00
51359;BME280;37448;51.588;7.248;2022-11-15T00:40:35;100203.38;;;8.02;100.00
51359;BME280;37448;51.588;7.248;2022-11-15T00:43:05;100195.59;;;8.04;100.00
51359;BME280;37448;51.588;7.248;2022-11-15T00:45:35;100198.13;;;8.12;100.00
51359;BME280;37448;51.588;7.248;2022-11-15T00:48:07;100192.78;;;8.19;100.00
51359;BME280;37448;51.588;7.248;2022-11-15T00:50:37;100211.59;;;8.21;100.00
51359;BME280;37448;51.588;7.248;2022-11-15T00:53:07;100197.19;;;8.24;100.00
51359;BME280;37448;51.588;7.248;2022-11-15T00:55:38;100198.00;;;8.24;100.00
51359;BME280;37448;51.588;7.248;2022-11-15T00:58:08;100195.31;;;8.28;100.00
51359;BME280;37448;51.588;7.248;2022-11-15T01:00:38;100193.13;;;8.34;100.00
51359;BME280;37448;51.588;7.248;2022-11-15T01:03:09;100199.91;;;8.40;100.00
51359;BME280;37448;51.588;7.248;2022-11-15T01:05:39;100193.34;;;8.44;100.00
51359;BME280;37448;51.588;7.248;2022-11-15T01:08:13;100196.28;;;8.55;100.00
51359;BME280;37448;51.588;7.248;2022-11-15T01:10:43;100192.34;;;8.52;100.00
51359;BME280;37448;51.588;7.248;2022-11-15T01:13:14;100190.53;;;8.60;100.00
51359;BME280;37448;51.588;7.248;2022-11-15T01:15:44;100194.13;;;8.64;100.00
51359;BME280;37448;51.588;7.248;2022-11-15T01:18:14;100198.88;;;8.67;100.00
51359;BME280;37448;51.588;7.248;2022-11-15T01:20:45;100204.00;;;8.68;100.00
51359;BME280;37448;51.588;7.248;2022-11-15T01:23:16;100206.00;;;8.71;100.00
51359;BME280;37448;51.588;7.248;2022-11-15T01:25:47;100201.75;;;8.74;100.00
51359;BME280;37448;51.588;7.248;2022-11-15T01:28:17;100195.91;;;8.76;100.00
51359;BME280;37448;51.588;7.248;2022-11-15T01:30:47;100198.66;;;8.76;100.00
51359;BME280;37448;51.588;7.248;2022-11-15T01:33:18;100203.84;;;8.81;100.00
51359;BME280;37448;51.588;7.248;2022-11-15T01:35:48;100193.78;;;8.88;100.00
51359;BME280;37448;51.588;7.248;2022-11-15T01:38:19;100194.66;;;8.92;100.00
51359;BME280;37448;51.588;7.248;2022-11-15T01:40:49;100191.56;;;8.94;100.00
51359;BME280;37448;51.588;7.248;2022-11-15T01:46:02;100184.75;;;9.07;100.00
51359;BME280;37448;51.588;7.248;2022-11-15T01:48:34;100188.28;;;9.07;100.00
51359;BME280;37448;51.588;7.248;2022-11-15T01:51:09;100183.31;;;9.16;100.00
51359;BME280;37448;51.588;7.248;2022-11-15T01:53:44;100181.06;;;9.22;100.00
51359;BME280;37448;51.588;7.248;2022-11-15T01:56:19;100179.81;;;9.16;100.00
51359;BME280;37448;51.588;7.248;2022-11-15T01:58:50;100183.75;;;9.18;100.00
51359;BME280;37448;51.588;7.248;2022-11-15T02:01:24;100172.72;;;9.15;100.00
51359;BME280;37448;51.588;7.248;2022-11-15T02:03:59;100179.88;;;9.20;100.00
51359;BME280;37448;51.588;7.248;2022-11-15T02:06:30;100176.72;;;9.21;100.00
51359;BME280;37448;51.588;7.248;2022-11-15T02:09:00;100180.66;;;9.20;100.00
51359;BME280;37448;51.588;7.248;2022-11-15T02:11:31;100179.91;;;9.23;100.00
51359;BME280;37448;51.588;7.248;2022-11-15T02:14:03;100182.34;;;9.28;100.00
51359;BME280;37448;51.588;7.248;2022-11-15T02:17:10;100170.59;;;9.28;100.00
51359;BME280;37448;51.588;7.248;2022-11-15T02:29:01;100165.22;;;9.35;100.00
51359;BME280;37448;51.588;7.248;2022-11-15T02:31:55;100166.81;;;9.36;100.00
51359;BME280;37448;51.588;7.248;2022-11-15T02:34:55;100166.91;;;9.43;100.00
51359;BME280;37448;51.588;7.248;2022-11-15T02:37:57;100162.97;;;9.40;100.00
51359;BME280;37448;51.588;7.248;2022-11-15T02:40:38;100156.63;;;9.36;100.00
51359;BME280;37448;51.588;7.248;2022-11-15T02:43:15;100157.53;;;9.44;100.00
51359;BME280;37448;51.588;7.248;2022-11-15T02:46:32;100148.09;;;9.41;100.00
51359;BME280;37448;51.588;7.248;2022-11-15T02:49:24;100152.88;;;9.48;100.00
51359;BME280;37448;51.588;7.248;2022-11-15T02:51:56;100157.56;;;9.47;100.00
51359;BME280;37448;51.588;7.248;2022-11-15T02:54:32;100156.41;;;9.48;100.00
51359;BME280;37448;51.588;7.248;2022-11-15T02:57:12;100163.84;;;9.48;100.00
51359;BME280;37448;51.588;7.248;2022-11-15T03:00:04;100160.69;;;9.46;100.00
51359;BME280;37448;51.588;7.248;2022-11-15T03:05:20;100168.66;;;9.54;100.00
51359;BME280;37448;51.588;7.248;2022-11-15T03:13:33;100169.13;;;9.60;100.00
51359;BME280;37448;51.588;7.248;2022-11-15T03:16:16;100166.34;;;9.56;100.00
51359;BME280;37448;51.588;7.248;2022-11-15T03:18:53;100160.00;;;9.52;100.00
51359;BME280;37448;51.588;7.248;2022-11-15T03:21:28;100166.34;;;9.56;100.00
51359;BME280;37448;51.588;7.248;2022-11-15T03:24:03;100161.66;;;9.57;100.00
51359;BME280;37448;51.588;7.248;2022-11-15T03:26:37;100162.44;;;9.57;100.00
51359;BME280;37448;51.588;7.248;2022-11-15T03:29:20;100162.44;;;9.57;100.00
51359;BME280;37448;51.588;7.248;2022-11-15T03:31:58;100163.28;;;9.61;100.00
51359;BME280;37448;51.588;7.248;2022-11-15T03:34:44;100165.66;;;9.63;100.00
51359;BME280;37448;51.588;7.248;2022-11-15T03:37:20;100161.78;;;9.68;100.00
51359;BME280;37448;51.588;7.248;2022-11-15T03:39:52;100168.88;;;9.69;100.00
51359;BME280;37448;51.588;7.248;2022-11-15T03:42:30;100160.22;;;9.67;100.00
51359;BME280;37448;51.588;7.248;2022-11-15T03:45:14;100162.97;;;9.67;100.00
51359;BME280;37448;51.588;7.248;2022-11-15T03:47:50;100160.31;;;9.74;100.00
51359;BME280;37448;51.588;7.248;2022-11-15T03:50:22;100161.47;;;9.73;100.00
51359;BME280;37448;51.588;7.248;2022-11-15T03:52:54;100142.81;;;9.85;100.00
51359;BME280;37448;51.588;7.248;2022-11-15T03:55:26;100143.25;;;9.87;100.00
51359;BME280;37448;51.588;7.248;2022-11-15T03:57:58;100142.50;;;9.90;100.00
51359;BME280;37448;51.588;7.248;2022-11-15T04:00:29;100150.06;;;9.97;100.00
51359;BME280;37448;51.588;7.248;2022-11-15T04:03:00;100150.06;;;9.97;100.00
51359;BME280;37448;51.588;7.248;2022-11-15T04:05:30;100143.81;;;10.00;100.00
51359;BME280;37448;51.588;7.248;2022-11-15T04:08:01;100139.56;;;10.06;100.00
51359;BME280;37448;51.588;7.248;2022-11-15T04:10:31;100141.44;;;9.98;100.00
51359;BME280;37448;51.588;7.248;2022-11-15T04:13:02;100137.94;;;10.01;100.00
51359;BME280;37448;51.588;7.248;2022-11-15T04:15:33;100128.50;;;9.99;100.00
51359;BME280;37448;51.588;7.248;2022-11-15T04:18:03;100132.41;;;9.98;100.00
51359;BME280;37448;51.588;7.248;2022-11-15T04:20:34;100133.59;;;9.97;100.00
51359;BME280;37448;51.588;7.248;2022-11-15T04:23:23;100134.78;;;9.99;100.00
51359;BME280;37448;51.588;7.248;2022-11-15T04:26:18;100126.09;;;9.94;100.00
51359;BME280;37448;51.588;7.248;2022-11-15T04:28:49;100122.66;;;10.00;100.00
51359;BME280;37448;51.588;7.248;2022-11-15T04:31:38;100129.31;;;9.99;100.00
51359;BME280;37448;51.588;7.248;2022-11-15T04:34:08;100125.44;;;10.04;100.00
51359;BME280;37448;51.588;7.248;2022-11-15T04:36:38;100134.91;;;10.10;100.00
51359;BME280;37448;51.588;7.248;2022-11-15T04:39:27;100125.94;;;10.13;100.00
51359;BME280;37448;51.588;7.248;2022-11-15T04:41:58;100126.31;;;10.12;100.00
51359;BME280;37448;51.588;7.248;2022-11-15T04:44:28;100131.88;;;10.15;100.00
51359;BME280;37448;51.588;7.248;2022-11-15T04:46:58;100131.28;;;10.32;100.00
51359;BME280;37448;51.588;7.248;2022-11-15T04:49:29;100126.91;;;10.28;100.00
51359;BME280;37448;51.588;7.248;2022-11-15T04:51:59;100137.91;;;10.28;100.00
51359;BME280;37448;51.588;7.248;2022-11-15T04:54:29;100117.88;;;10.27;100.00
51359;BME280;37448;51.588;7.248;2022-11-15T04:57:00;100126.59;;;10.33;100.00
51359;BME280;37448;51.588;7.248;2022-11-15T04:59:30;100124.31;;;10.38;100.00
51359;BME280;37448;51.588;7.248;2022-11-15T05:02:01;100122.78;;;10.44;100.00
51359;BME280;37448;51.588;7.248;2022-11-15T05:04:31;100120.13;;;10.51;100.00
51359;BME280;37448;51.588;7.248;2022-11-15T05:07:01;100111.81;;;10.44;100.00
51359;BME280;37448;51.588;7.248;2022-11-15T05:09:34;100110.97;;;10.40;100.00
51359;BME280;37448;51.588;7.248;2022-11-15T05:12:04;100129.03;;;10.41;100.00
51359;BME280;37448;51.588;7.248;2022-11-15T05:14:34;100129.09;;;10.45;100.00
51359;BME280;37448;51.588;7.248;2022-11-15T05:17:05;100123.56;;;10.41;100.00
51359;BME280;37448;51.588;7.248;2022-11-15T05:19:35;100123.97;;;10.43;100.00
51359;BME280;37448;51.588;7.248;2022-11-15T05:22:05;100130.31;;;10.47;100.00
51359;BME280;37448;51.588;7.248;2022-11-15T05:24:36;100129.09;;;10.45;100.00
51359;BME280;37448;51.588;7.248;2022-11-15T05:27:06;100117.28;;;10.44;100.00
51359;BME280;37448;51.588;7.248;2022-11-15T05:29:37;100116.16;;;10.49;100.00
51359;BME280;37448;51.588;7.248;2022-11-15T05:32:08;100108.34;;;10.51;100.00
51359;BME280;37448;51.588;7.248;2022-11-15T05:34:39;100111.19;;;10.62;100.00
51359;BME280;37448;51.588;7.248;2022-11-15T05:37:09;100115.88;;;10.58;100.00
51359;BME280;37448;51.588;7.248;2022-11-15T05:39:40;100113.88;;;10.54;100.00
51359;BME280;37448;51.588;7.248;2022-11-15T05:42:13;100101.75;;;10.59;100.00
51359;BME280;37448;51.588;7.248;2022-11-15T05:44:47;100105.66;;;10.58;100.00
51359;BME280;37448;51.588;7.248;2022-11-15T05:47:21;100110.06;;;10.66;100.00
51359;BME280;37448;51.588;7.248;2022-11-15T05:49:53;100114.38;;;10.64;100.00
51359;BME280;37448;51.588;7.248;2022-11-15T05:52:25;100094.69;;;10.58;100.00
51359;BME280;37448;51.588;7.248;2022-11-15T05:54:58;100093.03;;;10.50;100.00
51359;BME280;37448;51.588;7.248;2022-11-15T05:57:29;100104.06;;;10.53;100.00
51359;BME280;37448;51.588;7.248;2022-11-15T05:59:59;100093.47;;;10.52;100.00
51359;BME280;37448;51.588;7.248;2022-11-15T06:02:30;100099.38;;;10.58;100.00
51359;BME280;37448;51.588;7.248;2022-11-15T06:05:00;100107.22;;;10.56;100.00
51359;BME280;37448;51.588;7.248;2022-11-15T06:07:30;100108.72;;;10.49;100.00
51359;BME280;37448;51.588;7.248;2022-11-15T06:10:01;100115.88;;;10.58;100.00
51359;BME280;37448;51.588;7.248;2022-11-15T06:12:31;100120.19;;;10.59;100.00
51359;BME280;37448;51.588;7.248;2022-11-15T06:15:02;100118.22;;;10.56;100.00
51359;BME280;37448;51.588;7.248;2022-11-15T06:17:32;100106.16;;;10.67;100.00
51359;BME280;37448;51.588;7.248;2022-11-15T06:20:03;100113.94;;;10.62;100.00
51359;BME280;37448;51.588;7.248;2022-11-15T06:22:33;100122.94;;;10.59;100.00
51359;BME280;37448;51.588;7.248;2022-11-15T06:25:04;100130.72;;;10.53;100.00
51359;BME280;37448;51.588;7.248;2022-11-15T06:27:34;100129.19;;;10.52;100.00
51359;BME280;37448;51.588;7.248;2022-11-15T06:30:05;100132.38;;;10.61;100.00
51359;BME280;37448;51.588;7.248;2022-11-15T06:32:35;100138.69;;;10.62;100.00
51359;BME280;37448;51.588;7.248;2022-11-15T06:35:06;100153.59;;;10.61;100.00
51359;BME280;37448;51.588;7.248;2022-11-15T06:37:36;100144.06;;;10.51;100.00
51359;BME280;37448;51.588;7.248;2022-11-15T06:40:08;100151.91;;;10.52;100.00
51359;BME280;37448;51.588;7.248;2022-11-15T06:42:39;100144.44;;;10.49;100.00
51359;BME280;37448;51.588;7.248;2022-11-15T06:45:09;100155.47;;;10.53;100.00
51359;BME280;37448;51.588;7.248;2022-11-15T06:47:46;100160.94;;;10.49;100.00
51359;BME280;37448;51.588;7.248;2022-11-15T06:50:17;100160.53;;;10.47;100.00
51359;BME280;37448;51.588;7.248;2022-11-15T06:52:47;100156.56;;;10.45;100.00
51359;BME280;37448;51.588;7.248;2022-11-15T06:55:17;100154.19;;;10.43;100.00
51359;BME280;37448;51.588;7.248;2022-11-15T06:57:49;100155.03;;;10.47;100.00
51359;BME280;37448;51.588;7.248;2022-11-15T07:00:21;100161.34;;;10.51;100.00
51359;BME280;37448;51.588;7.248;2022-11-15T07:02:51;100169.63;;;10.55;100.00
51359;BME280;37448;51.588;7.248;2022-11-15T07:05:22;100169.16;;;10.49;100.00
51359;BME280;37448;51.588;7.248;2022-11-15T07:07:53;100160.09;;;10.45;100.00
51359;BME280;37448;51.588;7.248;2022-11-15T07:10:24;100161.34;;;10.51;100.00
51359;BME280;37448;51.588;7.248;2022-11-15T07:12:55;100160.97;;;10.53;100.00
51359;BME280;37448;51.588;7.248;2022-11-15T07:15:26;100169.00;;;10.69;100.00
51359;BME280;37448;51.588;7.248;2022-11-15T07:18:00;100171.59;;;10.54;100.00
51359;BME280;37448;51.588;7.248;2022-11-15T07:20:30;100170.81;;;10.58;100.00
51359;BME280;37448;51.588;7.248;2022-11-15T07:23:02;100165.31;;;10.58;100.00
51359;BME280;37448;51.588;7.248;2022-11-15T07:25:32;100167.75;;;10.63;100.00
51359;BME280;37448;51.588;7.248;2022-11-15T07:28:03;100169.41;;;10.71;100.00
51359;BME280;37448;51.588;7.248;2022-11-15T07:30:33;100180.84;;;10.76;100.00
51359;BME280;37448;51.588;7.248;2022-11-15T07:33:04;100174.22;;;10.81;100.00
51359;BME280;37448;51.588;7.248;2022-11-15T07:35:34;100167.16;;;10.80;100.00
51359;BME280;37448;51.588;7.248;2022-11-15T07:38:04;100166.38;;;10.83;100.00
51359;BME280;37448;51.588;7.248;2022-11-15T07:40:35;100163.25;;;10.84;100.00
51359;BME280;37448;51.588;7.248;2022-11-15T07:43:07;100166.47;;;10.90;100.00
51359;BME280;37448;51.588;7.248;2022-11-15T07:45:45;100168.47;;;10.93;100.00
51359;BME280;37448;51.588;7.248;2022-11-15T07:48:15;100159.06;;;10.97;100.00
51359;BME280;37448;51.588;7.248;2022-11-15T07:50:45;100163.41;;;10.98;100.00
51359;BME280;37448;51.588;7.248;2022-11-15T07:53:16;100163.13;;;11.11;100.00
51359;BME280;37448;51.588;7.248;2022-11-15T07:55:47;100158.03;;;11.16;100.00
51359;BME280;37448;51.588;7.248;2022-11-15T07:58:17;100156.53;;;11.22;100.00
51359;BME280;37448;51.588;7.248;2022-11-15T08:00:48;100155.03;;;11.28;100.00
51359;BME280;37448;51.588;7.248;2022-11-15T08:03:18;100155.88;;;11.36;100.00
51359;BME280;37448;51.588;7.248;2022-11-15T08:05:51;100166.06;;;11.35;100.00
51359;BME280;37448;51.588;7.248;2022-11-15T08:08:22;100162.25;;;11.51;100.00
51359;BME280;37448;51.588;7.248;2022-11-15T08:10:52;100163.06;;;11.55;100.00
51359;BME280;37448;51.588;7.248;2022-11-15T08:13:23;100159.19;;;11.63;100.00
51359;BME280;37448;51.588;7.248;2022-11-15T08:16:01;100160.03;;;11.67;100.00
51359;BME280;37448;51.588;7.248;2022-11-15T08:18:31;100153.00;;;11.73;100.00
51359;BME280;37448;51.588;7.248;2022-11-15T08:21:02;100142.78;;;11.77;100.00
51359;BME280;37448;51.588;7.248;2022-11-15T08:23:32;100155.44;;;11.85;100.00
51359;BME280;37448;51.588;7.248;2022-11-15T08:26:03;100143.66;;;11.88;100.00
51359;BME280;37448;51.588;7.248;2022-11-15T08:28:34;100147.59;;;11.90;100.00
51359;BME280;37448;51.588;7.248;2022-11-15T08:31:04;100147.63;;;11.94;100.00
51359;BME280;37448;51.588;7.248;2022-11-15T08:33:35;100139.38;;;12.01;100.00
51359;BME280;37448;51.588;7.248;2022-11-15T08:36:05;100148.88;;;12.07;100.00
51359;BME280;37448;51.588;7.248;2022-11-15T08:38:36;100146.53;;;12.16;100.00
51359;BME280;37448;51.588;7.248;2022-11-15T08:41:06;100143.44;;;12.32;100.00
51359;BME280;37448;51.588;7.248;2022-11-15T08:43:36;100149.41;;;12.45;100.00
51359;BME280;37448;51.588;7.248;2022-11-15T08:46:10;100149.81;;;12.47;100.00
51359;BME280;37448;51.588;7.248;2022-11-15T08:48:41;100147.06;;;12.47;100.00
51359;BME280;37448;51.588;7.248;2022-11-15T08:51:12;100137.66;;;12.72;100.00
51359;BME280;37448;51.588;7.248;2022-11-15T08:53:42;100136.13;;;13.07;100.00
51359;BME280;37448;51.588;7.248;2022-11-15T08:56:14;100128.63;;;13.50;100.00
51359;BME280;37448;51.588;7.248;2022-11-15T08:58:45;100130.94;;;13.87;100.00
51359;BME280;37448;51.588;7.248;2022-11-15T09:01:19;100126.91;;;14.16;100.00
51359;BME280;37448;51.588;7.248;2022-11-15T09:03:49;100127.34;;;13.97;100.00
51359;BME280;37448;51.588;7.248;2022-11-15T09:06:20;100129.59;;;14.34;100.00
51359;BME280;37448;51.588;7.248;2022-11-15T09:08:50;100120.09;;;14.42;100.00
51359;BME280;37448;51.588;7.248;2022-11-15T09:11:21;100119.34;;;14.24;100.00
51359;BME280;37448;51.588;7.248;2022-11-15T09:13:53;100128.13;;;14.04;100.00
51359;BME280;37448;51.588;7.248;2022-11-15T09:16:23;100117.78;;;14.19;100.00
51359;BME280;37448;51.588;7.248;2022-11-15T09:18:54;100124.94;;;14.16;100.00
51359;BME280;37448;51.588;7.248;2022-11-15T09:21:24;100121.00;;;14.10;100.00
51359;BME280;37448;51.588;7.248;2022-11-15T09:23:55;100115.16;;;13.87;100.00
51359;BME280;37448;51.588;7.248;2022-11-15T09:26:26;100120.19;;;14.10;100.00
51359;BME280;37448;51.588;7.248;2022-11-15T09:28:56;100115.47;;;14.10;100.00
51359;BME280;37448;51.588;7.248;2022-11-15T09:31:26;100112.66;;;14.25;100.00
51359;BME280;37448;51.588;7.248;2022-11-15T09:33:57;100108.00;;;14.00;100.00
51359;BME280;37448;51.588;7.248;2022-11-15T09:36:27;100109.84;;;14.32;100.00
51359;BME280;37448;51.588;7.248;2022-11-15T09:38:58;100096.75;;;14.43;100.00
51359;BME280;37448;51.588;7.248;2022-11-15T09:41:38;100107.44;;;14.44;100.00
51359;BME280;37448;51.588;7.248;2022-11-15T09:44:47;100106.63;;;14.44;100.00
51359;BME280;37448;51.588;7.248;2022-11-15T09:47:46;100105.44;;;15.03;100.00
51359;BME280;37448;51.588;7.248;2022-11-15T09:50:34;100104.56;;;15.95;100.00
51359;BME280;37448;51.588;7.248;2022-11-15T09:53:12;100100.25;;;16.25;100.00
51359;BME280;37448;51.588;7.248;2022-11-15T09:55:55;100098.84;;;16.70;100.00
51359;BME280;37448;51.588;7.248;2022-11-15T10:01:53;100104.81;;;16.96;100.00
51359;BME280;37448;51.588;7.248;2022-11-15T10:04:26;100096.91;;;16.07;100.00
51359;BME280;37448;51.588;7.248;2022-11-15T10:09:58;100090.53;;;14.90;100.00
51359;BME280;37448;51.588;7.248;2022-11-15T10:12:32;100088.78;;;14.59;100.00
51359;BME280;37448;51.588;7.248;2022-11-15T10:15:13;100075.97;;;14.13;100.00
51359;BME280;37448;51.588;7.248;2022-11-15T10:20:26;100076.09;;;13.82;100.00
51359;BME280;37448;51.588;7.248;2022-11-15T10:23:00;100063.94;;;13.61;100.00
51359;BME280;37448;51.588;7.248;2022-11-15T10:25:32;100063.16;;;13.54;100.00
51359;BME280;37448;51.588;7.248;2022-11-15T10:30:37;100047.06;;;13.27;100.00
51359;BME280;37448;51.588;7.248;2022-11-15T10:33:17;100055.34;;;13.24;100.00
51359;BME280;37448;51.588;7.248;2022-11-15T10:41:29;100032.09;;;12.93;100.00
51359;BME280;37448;51.588;7.248;2022-11-15T10:44:19;100038.00;;;12.92;100.00
51359;BME280;37448;51.588;7.248;2022-11-15T10:49:29;100028.16;;;12.80;100.00
51359;BME280;37448;51.588;7.248;2022-11-15T10:54:46;100034.88;;;12.68;100.00
51359;BME280;37448;51.588;7.248;2022-11-15T10:57:21;100032.09;;;12.65;100.00
51359;BME280;37448;51.588;7.248;2022-11-15T10:59:58;100025.81;;;12.64;100.00
51359;BME280;37448;51.588;7.248;2022-11-15T11:02:32;100015.94;;;12.56;100.00
51359;BME280;37448;51.588;7.248;2022-11-15T11:05:20;100017.50;;;12.57;100.00
51359;BME280;37448;51.588;7.248;2022-11-15T11:08:00;100015.16;;;12.56;100.00
51359;BME280;37448;51.588;7.248;2022-11-15T11:10:31;100007.66;;;12.53;100.00
51359;BME280;37448;51.588;7.248;2022-11-15T11:13:14;100008.44;;;12.53;100.00
51359;BME280;37448;51.588;7.248;2022-11-15T11:15:46;99999.00;;;12.58;100.00
51359;BME280;37448;51.588;7.248;2022-11-15T11:18:26;100002.94;;;12.57;100.00
51359;BME280;37448;51.588;7.248;2022-11-15T11:21:03;99997.44;;;12.53;100.00
51359;BME280;37448;51.588;7.248;2022-11-15T11:23:54;100000.97;;;12.54;100.00
51359;BME280;37448;51.588;7.248;2022-11-15T11:26:35;99998.22;;;12.54;100.00
51359;BME280;37448;51.588;7.248;2022-11-15T11:29:23;99991.50;;;12.48;100.00
51359;BME280;37448;51.588;7.248;2022-11-15T11:32:25;99996.63;;;12.46;100.00
51359;BME280;37448;51.588;7.248;2022-11-15T11:49:20;99954.53;;;12.34;100.00
51359;BME280;37448;51.588;7.248;2022-11-15T12:00:21;99954.91;;;12.40;100.00
51359;BME280;37448;51.588;7.248;2022-11-15T12:05:50;99936.00;;;12.46;100.00
51359;BME280;37448;51.588;7.248;2022-11-15T12:08:50;99939.16;;;12.51;100.00
51359;BME280;37448;51.588;7.248;2022-11-15T12:14:42;99945.84;;;12.40;100.00
51359;BME280;37448;51.588;7.248;2022-11-15T12:17:16;99943.09;;;12.40;100.00
51359;BME280;37448;51.588;7.248;2022-11-15T12:19:48;99943.09;;;12.36;100.00
51359;BME280;37448;51.588;7.248;2022-11-15T12:24:57;99931.25;;;12.57;100.00
51359;BME280;37448;51.588;7.248;2022-11-15T12:30:07;99937.19;;;12.45;100.00
51359;BME280;37448;51.588;7.248;2022-11-15T12:32:51;99936.41;;;12.55;100.00
51359;BME280;37448;51.588;7.248;2022-11-15T12:35:38;99936.41;;;12.51;100.00
51359;BME280;37448;51.588;7.248;2022-11-15T12:38:13;99933.66;;;12.55;100.00
51359;BME280;37448;51.588;7.248;2022-11-15T12:41:13;99921.84;;;12.51;100.00
51359;BME280;37448;51.588;7.248;2022-11-15T12:43:46;99931.25;;;12.57;100.00
51359;BME280;37448;51.588;7.248;2022-11-15T12:52:07;99908.03;;;12.58;100.00
51359;BME280;37448;51.588;7.248;2022-11-15T12:59:58;99887.97;;;12.47;100.00
51359;BME280;37448;51.588;7.248;2022-11-15T13:02:39;99876.97;;;12.47;100.00
51359;BME280;37448;51.588;7.248;2022-11-15T13:10:33;99867.50;;;12.41;100.00
51359;BME280;37448;51.588;7.248;2022-11-15T13:13:08;99865.94;;;12.43;100.00
51359;BME280;37448;51.588;7.248;2022-11-15T13:15:51;99861.19;;;12.44;100.00
51359;BME280;37448;51.588;7.248;2022-11-15T13:20:53;99864.75;;;12.44;100.00
51359;BME280;37448;51.588;7.248;2022-11-15T13:23:24;99851.75;;;12.41;100.00
51359;BME280;37448;51.588;7.248;2022-11-15T13:26:01;99849.00;;;12.41;100.00
51359;BME280;37448;51.588;7.248;2022-11-15T13:31:35;99834.06;;;12.39;100.00
51359;BME280;37448;51.588;7.248;2022-11-15T13:36:46;99826.56;;;12.35;100.00
51359;BME280;37448;51.588;7.248;2022-11-15T13:39:31;99822.66;;;12.29;100.00
51359;BME280;37448;51.588;7.248;2022-11-15T13:42:02;99828.16;;;12.26;100.00
51359;BME280;37448;51.588;7.248;2022-11-15T13:44:33;99828.94;;;12.19;100.00
51359;BME280;37448;51.588;7.248;2022-11-15T13:47:13;99827.38;;;12.18;100.00
51359;BME280;37448;51.588;7.248;2022-11-15T13:49:44;99829.34;;;12.14;100.00
51359;BME280;37448;51.588;7.248;2022-11-15T13:52:14;99826.56;;;12.18;100.00
51359;BME280;37448;51.588;7.248;2022-11-15T13:54:59;99834.81;;;18.48;100.00
51359;BME280;37448;51.588;7.248;2022-11-15T13:57:43;99808.88;;;15.39;100.00
51359;BME280;37448;51.588;7.248;2022-11-15T14:00:44;99814.53;;;14.23;100.00
51359;BME280;37448;51.588;7.248;2022-11-15T14:03:21;99810.41;;;13.49;100.00
51359;BME280;37448;51.588;7.248;2022-11-15T14:06:11;99801.13;;;13.15;100.00
51359;BME280;37448;51.588;7.248;2022-11-15T14:09:02;99801.25;;;12.79;100.00
51359;BME280;37448;51.588;7.248;2022-11-15T14:11:33;99793.78;;;12.76;100.00
51359;BME280;37448;51.588;7.248;2022-11-15T14:16:48;99792.66;;;12.56;100.00
51359;BME280;37448;51.588;7.248;2022-11-15T14:22:24;99783.25;;;12.47;100.00
51359;BME280;37448;51.588;7.248;2022-11-15T14:27:37;99776.19;;;12.42;100.00
51359;BME280;37448;51.588;7.248;2022-11-15T14:30:13;99765.53;;;12.44;100.00
51359;BME280;37448;51.588;7.248;2022-11-15T14:32:46;99765.94;;;12.43;100.00
51359;BME280;37448;51.588;7.248;2022-11-15T14:35:20;99762.00;;;12.40;100.00
51359;BME280;37448;51.588;7.248;2022-11-15T14:37:50;99756.47;;;12.40;100.00
51359;BME280;37448;51.588;7.248;2022-11-15T14:40:21;99760.81;;;12.41;100.00
51359;BME280;37448;51.588;7.248;2022-11-15T14:42:52;99745.44;;;12.44;100.00
51359;BME280;37448;51.588;7.248;2022-11-15T14:45:22;99733.25;;;12.41;100.00
51359;BME280;37448;51.588;7.248;2022-11-15T14:47:53;99739.94;;;12.40;100.00
51359;BME280;37448;51.588;7.248;2022-11-15T14:50:23;99727.00;;;12.33;100.00
51359;BME280;37448;51.588;7.248;2022-11-15T14:52:53;99736.06;;;12.30;100.00
51359;BME280;37448;51.588;7.248;2022-11-15T14:55:26;99728.97;;;12.22;100.00
51359;BME280;37448;51.588;7.248;2022-11-15T14:57:58;99726.63;;;12.24;100.00
51359;BME280;37448;51.588;7.248;2022-11-15T15:00:30;99716.41;;;12.21;100.00
51359;BME280;37448;51.588;7.248;2022-11-15T15:03:01;99709.31;;;12.20;100.00
51359;BME280;37448;51.588;7.248;2022-11-15T15:05:33;99710.50;;;12.19;100.00
51359;BME280;37448;51.588;7.248;2022-11-15T15:08:04;99714.06;;;12.16;100.00
51359;BME280;37448;51.588;7.248;2022-11-15T15:10:44;99703.81;;;12.17;100.00